Data for 01/30/2015

Time Sea-Level Adjusted Pressure Absolute Pressure Temperature Relative Humidity Dew Point   
(mb) (inHg) (mb) (inHg) (C) (F) (%) (C) (F)
00:05 1026 30.3 855 25.25 -1.6 29.1 63 -7.8 17.9
00:10 1026 30.3 855 25.25 -1.6 29.1 63 -7.7 18.1
00:15 1026 30.3 855 25.25 -1.6 29.2 63 -7.7 18.1
00:20 1026 30.3 855 25.25 -1.4 29.6 61 -7.8 17.9
00:25 1026 30.3 855 25.25 -1.2 29.8 61 -7.8 18
00:30 1026 30.3 855 25.25 -1.5 29.3 62 -7.8 18
00:35 1026 30.3 855 25.25 -1.8 28.8 63 -7.9 17.8
00:40 1026 30.3 855 25.25 -1.6 29.2 64 -7.6 18.3
00:45 1026 30.3 855 25.25 -1.8 28.7 64 -7.7 18.2
00:50 1026 30.3 855 25.25 -2.1 28.3 66 -7.6 18.4
00:55 1026 30.3 855 25.25 -2.1 28.2 66 -7.7 18.2
01:00 1026 30.3 855 25.25 -2 28.4 65 -7.6 18.2
01:05 1026 30.3 855 25.25 -1.9 28.6 64 -7.8 18
01:10 1026 30.3 855 25.25 -1.7 28.9 63 -7.8 18
01:15 1026 30.3 855 25.25 -1.6 29.2 63 -7.8 18
01:20 1026 30.3 855 25.25 -1.4 29.4 62 -7.8 17.9
01:25 1026 30.3 855 25.25 -1.4 29.4 61 -7.9 17.8
01:30 1026 30.3 855 25.25 -1.5 29.4 62 -7.8 17.9
01:35 1026 30.3 855 25.25 -1.6 29.2 62 -7.9 17.8
01:40 1026 30.3 855 25.25 -1.6 29.1 62 -7.9 17.8
01:45 1026 30.3 855 25.25 -1.7 29 63 -7.9 17.8
01:50 1025 30.27 855 25.25 -1.7 28.9 63 -7.9 17.7
01:55 1025 30.27 855 25.25 -1.6 29.1 62 -7.9 17.7
02:00 1025 30.27 855 25.25 -1.6 29.1 62 -7.9 17.8
02:05 1025 30.27 855 25.25 -1.6 29.2 62 -8 17.6
02:10 1025 30.27 855 25.25 -1.4 29.5 60 -8.3 17.1
02:15 1025 30.27 855 25.25 -1 30.2 58 -8.2 17.3
02:20 1025 30.27 854 25.22 -0.9 30.4 57 -8.3 17.1
02:25 1025 30.27 854 25.22 -0.8 30.6 57 -8.2 17.2
02:30 1025 30.27 854 25.22 -0.9 30.3 58 -8.2 17.3
02:35 1025 30.27 854 25.22 -1.2 29.8 58 -8.3 17
02:40 1025 30.27 854 25.22 -1.3 29.6 58 -8.6 16.6
02:45 1025 30.27 854 25.22 -1.3 29.6 59 -8.3 17
02:50 1025 30.27 854 25.22 -1.5 29.4 59 -8.6 16.6
02:55 1025 30.27 854 25.22 -1.4 29.5 54 -9.5 14.8
03:00 1025 30.27 854 25.22 -1.3 29.7 52 -10 14.1
03:05 1025 30.27 854 25.22 -1.3 29.7 52 -10 14
03:10 1025 30.27 854 25.22 -1.5 29.3 54 -9.8 14.4
03:15 1025 30.27 854 25.22 -1.3 29.7 55 -9.2 15.4
03:20 1025 30.27 854 25.22 -2.4 27.7 60 -9.1 15.6
03:25 1025 30.27 854 25.22 -2.6 27.4 60 -9.3 15.2
03:30 1025 30.27 854 25.22 -1.7 28.9 59 -8.8 16.2
03:35 1025 30.27 854 25.22 -1.7 28.9 60 -8.6 16.6
03:40 1025 30.27 854 25.22 -2.1 28.3 61 -8.7 16.3
03:45 1025 30.27 854 25.22 -2.3 27.9 62 -8.5 16.6
03:50 1025 30.27 854 25.22 -2.3 27.8 63 -8.5 16.7
03:55 1025 30.27 854 25.22 -1.8 28.7 61 -8.5 16.7
04:00 1025 30.27 854 25.22 -1.6 29.1 59 -8.6 16.6
04:05 1025 30.27 854 25.22 -1.8 28.8 61 -8.3 17
04:10 1025 30.27 854 25.22 -2.6 27.3 65 -8.4 16.9
04:15 1025 30.27 854 25.22 -3.1 26.4 64 -9 15.8
04:20 1025 30.27 854 25.22 -2.8 26.9 64 -8.7 16.3
04:25 1025 30.27 854 25.22 -2.4 27.7 62 -8.6 16.5
04:30 1025 30.27 854 25.22 -2.4 27.6 65 -8.2 17.3
04:35 1025 30.27 854 25.22 -2.9 26.8 65 -8.6 16.5
04:40 1025 30.27 854 25.22 -2.8 26.9 65 -8.6 16.6
04:45 1025 30.27 854 25.22 -2.5 27.4 61 -9 15.7
04:50 1025 30.27 854 25.22 -2.2 28 62 -8.4 16.8
04:55 1025 30.27 854 25.22 -2.2 28 60 -9 15.7
05:00 1025 30.27 854 25.22 -1.7 28.9 59 -8.6 16.4
05:05 1025 30.27 854 25.22 -1.8 28.8 61 -8.4 16.9
05:10 1025 30.27 854 25.22 -1.6 29.1 57 -9.1 15.6
05:15 1025 30.27 854 25.22 -1.5 29.3 60 -8.3 17.1
05:20 1025 30.27 854 25.22 -1.8 28.7 61 -8.3 17
05:25 1025 30.27 854 25.22 -2.1 28.1 64 -8.1 17.4
05:30 1025 30.27 854 25.22 -2.4 27.6 63 -8.5 16.6
05:35 1025 30.27 854 25.22 -2.5 27.5 64 -8.4 17
05:40 1025 30.27 854 25.22 -2.6 27.4 64 -8.4 16.8
05:45 1025 30.27 854 25.22 -2.8 27 66 -8.3 17
05:50 1025 30.27 854 25.22 -2.9 26.8 66 -8.4 16.9
05:55 1025 30.27 854 25.22 -2.8 27 65 -8.4 16.8
06:00 1025 30.27 854 25.22 -2.6 27.3 66 -8.2 17.3
06:05 1025 30.27 854 25.22 -2.7 27.1 66 -8.3 17.1
06:10 1025 30.27 854 25.22 -2.6 27.4 65 -8.3 17
06:15 1025 30.27 854 25.22 -2.3 27.9 63 -8.4 16.9
06:20 1025 30.27 854 25.22 -2.1 28.3 62 -8.5 16.7
06:25 1025 30.27 854 25.22 -2.4 27.6 63 -8.6 16.5
06:30 1025 30.27 854 25.22 -2.9 26.7 64 -8.9 16
06:35 1025 30.27 854 25.22 -2.8 26.9 63 -9 15.9
06:40 1025 30.27 854 25.22 -2.8 26.9 64 -8.8 16.2
06:45 1025 30.27 854 25.22 -3.1 26.4 65 -8.8 16.1
06:50 1025 30.27 854 25.22 -3.2 26.3 66 -8.6 16.5
06:55 1025 30.27 854 25.22 -3.3 26 68 -8.4 16.9
07:00 1025 30.27 854 25.22 -3.5 25.7 68 -8.6 16.5
07:05 1025 30.27 854 25.22 -3.6 25.6 68 -8.6 16.5
07:10 1025 30.27 854 25.22 -3.6 25.6 68 -8.6 16.6
07:15 1025 30.27 854 25.22 -3.4 25.9 68 -8.5 16.7
07:20 1025 30.27 854 25.22 -3.2 26.3 67 -8.4 16.8
07:25 1025 30.27 854 25.22 -2.9 26.8 66 -8.4 16.9
07:30 1025 30.27 854 25.22 -2.7 27.1 63 -8.7 16.3
07:35 1025 30.27 854 25.22 -2.6 27.3 62 -8.8 16.1
07:40 1025 30.27 854 25.22 -2.4 27.6 62 -8.8 16.2
07:45 1025 30.27 854 25.22 -2.4 27.7 60 -9.2 15.5
07:50 1025 30.27 854 25.22 -2.4 27.7 60 -9.2 15.5
07:55 1025 30.27 854 25.22 -2.4 27.7 59 -9.4 15
08:00 1025 30.27 854 25.22 -2.5 27.6 59 -9.4 15.1
08:05 1025 30.27 854 25.22 -2.6 27.3 58 -9.7 14.5
08:10 1025 30.27 854 25.22 -3.3 26.1 57 -10.6 12.9
08:15 1025 30.27 854 25.22 -2.9 26.7 58 -10.2 13.7
08:20 1025 30.27 854 25.22 -3.3 26 60 -10.1 13.8
08:25 1025 30.27 854 25.22 -3.2 26.3 63 -9.2 15.4
08:30 1025 30.27 854 25.22 -3 26.6 64 -8.8 16.1
08:35 1025 30.27 854 25.22 -3 26.7 64 -8.9 16
08:40 1025 30.27 854 25.22 -3 26.7 63 -9 15.8
08:45 1025 30.27 854 25.22 -3.1 26.5 64 -9 15.9
08:50 1025 30.27 854 25.22 -3.2 26.3 63 -9.2 15.4
08:55 1025 30.27 854 25.22 -3.2 26.2 65 -8.9 16
09:00 1025 30.27 854 25.22 -3.4 26 66 -8.9 15.9
09:05 1025 30.27 854 25.22 -3.7 25.3 68 -8.8 16.1
09:10 1025 30.27 854 25.22 -4.1 24.7 70 -8.8 16.2
09:15 1025 30.27 854 25.22 -4 24.7 69 -8.9 16
09:20 1025 30.27 854 25.22 -4 24.8 68 -9 15.7
09:25 1025 30.27 854 25.22 -3.9 25 67 -9.1 15.7
09:30 1025 30.27 854 25.22 -3.7 25.4 67 -9 15.9
09:35 1025 30.27 854 25.22 -3.5 25.7 67 -8.9 16.1
09:40 1025 30.27 854 25.22 -3.5 25.7 67 -8.8 16.2
09:45 1025 30.27 854 25.22 -3.7 25.4 67 -8.9 15.9
09:50 1025 30.27 854 25.22 -3.6 25.5 67 -8.9 15.9
09:55 1025 30.27 854 25.22 -3.4 25.9 66 -8.9 16
10:00 1025 30.27 854 25.22 -3.1 26.5 64 -8.9 16
10:05 1025 30.27 854 25.22 -2.6 27.2 62 -8.9 15.9
10:10 1025 30.27 854 25.22 -2.4 27.6 61 -9.1 15.7
10:15 1025 30.27 854 25.22 -2.2 28 60 -8.9 16
10:20 1025 30.27 854 25.22 -1.9 28.5 59 -8.9 16
10:25 1025 30.27 854 25.22 -1.7 29 58 -8.8 16.1
10:30 1025 30.27 854 25.22 -1.4 29.5 58 -8.5 16.7
10:35 1025 30.27 854 25.22 -0.9 30.3 56 -8.5 16.6
10:40 1025 30.27 854 25.22 -1.1 29.9 57 -8.6 16.6
10:45 1025 30.27 854 25.22 -1.2 29.9 57 -8.7 16.3
10:50 1025 30.27 854 25.22 -0.8 30.5 55 -8.8 16.1
10:55 1025 30.27 854 25.22 -0.6 30.9 55 -8.5 16.6
11:00 1025 30.27 854 25.22 -0.1 31.8 54 -8.4 16.9
11:05 1025 30.27 854 25.22 -0.1 31.8 55 -8.1 17.4
11:10 1025 30.27 854 25.22 0.2 32.3 54 -8.2 17.3
11:15 1025 30.27 854 25.22 0.6 33 51 -8.5 16.7
11:20 1025 30.27 854 25.22 0.5 32.8 51 -8.4 16.8
11:25 1025 30.27 854 25.22 0.6 33.1 50 -8.6 16.5
11:30 1025 30.27 854 25.22 1 33.8 48 -8.8 16.2
11:35 1025 30.27 854 25.22 1.4 34.5 47 -8.8 16.1
11:40 1025 30.27 854 25.22 1.9 35.4 45 -8.9 16.1
11:45 1025 30.27 854 25.22 2.5 36.5 43 -8.8 16.1
11:50 1025 30.27 854 25.22 2.6 36.7 42 -9 15.7
11:55 1025 30.27 854 25.22 2.4 36.3 44 -8.7 16.4
12:00 1025 30.27 854 25.22 2.7 36.9 43 -8.6 16.5
12:05 1025 30.27 854 25.22 3 37.5 41 -8.9 16
12:10 1025 30.27 854 25.22 3.1 37.6 43 -8.4 16.9
12:15 1025 30.27 854 25.22 3.7 38.6 40 -8.8 16.1
12:20 1025 30.27 854 25.22 4.2 39.5 40 -8.3 17.1
12:25 1025 30.27 854 25.22 3.6 38.4 42 -8 17.5
12:30 1024 30.24 854 25.22 3.2 37.7 42 -8.4 16.8
12:35 1024 30.24 854 25.22 3.9 39.1 39 -8.8 16.2
12:40 1024 30.24 854 25.22 4.5 40.1 38 -8.7 16.3
12:45 1024 30.24 854 25.22 4.4 40 39 -8.5 16.7
12:50 1024 30.24 853 25.19 4.7 40.5 39 -8.2 17.2
12:55 1024 30.24 853 25.19 4.5 40.1 39 -8.3 17
13:00 1024 30.24 853 25.19 4.6 40.2 39 -8.1 17.5
13:05 1024 30.24 853 25.19 4 39.3 42 -7.6 18.3
13:10 1024 30.24 853 25.19 4.3 39.7 40 -8.3 17.1
13:15 1024 30.24 853 25.19 5.5 42 37 -8.1 17.5
13:20 1024 30.24 853 25.19 5.7 42.3 37 -7.7 18.2
13:25 1024 30.24 853 25.19 5.6 42.1 36 -8.4 16.8
13:30 1024 30.24 853 25.19 4.6 40.2 42 -7.4 18.7
13:35 1024 30.24 853 25.19 4.2 39.6 42 -7.7 18.1
13:40 1024 30.24 853 25.19 5.1 41.3 37 -8.3 17.1
13:45 1023 30.21 853 25.19 6 42.9 36 -8 17.6
13:50 1023 30.21 853 25.19 5.3 41.5 40 -7.3 18.9
13:55 1023 30.21 852 25.16 5.4 41.8 36 -8.4 16.9
14:00 1023 30.21 852 25.16 6 42.7 37 -7.7 18.2
14:05 1023 30.21 852 25.16 5.8 42.5 37 -7.8 18
14:10 1023 30.21 852 25.16 5.2 41.4 41 -6.9 19.6
14:15 1023 30.21 852 25.16 4.5 40 44 -6.8 19.8
14:20 1023 30.21 852 25.16 4.4 40 43 -7 19.4
14:25 1023 30.21 852 25.16 4.5 40.1 43 -6.9 19.6
14:30 1023 30.21 852 25.16 4.4 39.9 44 -6.8 19.7
14:35 1023 30.21 852 25.16 4.4 39.9 45 -6.5 20.3
14:40 1023 30.21 852 25.16 4.5 40 41 -7.5 18.5
14:45 1023 30.21 852 25.16 4.7 40.5 40 -7.8 17.9
14:50 1023 30.21 852 25.16 5.6 42.1 39 -7.3 18.8
14:55 1023 30.21 852 25.16 5.9 42.6 39 -7.1 19.3
15:00 1023 30.21 852 25.16 5.8 42.5 37 -7.7 18.1
15:05 1023 30.21 852 25.16 6.3 43.3 35 -7.9 17.7
15:10 1023 30.21 852 25.16 6.3 43.4 38 -6.9 19.5
15:15 1023 30.21 852 25.16 6.5 43.6 36 -7.4 18.7
15:20 1022 30.18 852 25.16 6.7 44 37 -7.1 19.1
15:25 1022 30.18 852 25.16 6.6 44 37 -7.2 19.1
15:30 1022 30.18 852 25.16 6.5 43.7 35 -7.8 18
15:35 1022 30.18 851 25.13 7.1 44.7 36 -7.1 19.2
15:40 1022 30.18 851 25.13 7 44.6 34 -7.9 17.9
15:45 1022 30.18 851 25.13 6.7 44 35 -7.9 17.8
15:50 1022 30.18 851 25.13 6.3 43.3 35 -8 17.6
15:55 1022 30.18 851 25.13 6.2 43.1 36 -7.8 18
16:00 1022 30.18 851 25.13 6.1 43 37 -7.4 18.7
16:05 1022 30.18 851 25.13 6.2 43.2 37 -7.3 18.9
16:10 1022 30.18 851 25.13 6.3 43.4 39 -6.7 19.9
16:15 1022 30.18 851 25.13 6.2 43.2 38 -7 19.5
16:20 1022 30.18 851 25.13 6.5 43.8 37 -7.1 19.2
16:25 1022 30.18 851 25.13 6.4 43.5 40 -6.2 20.8
16:30 1022 30.18 851 25.13 5.9 42.7 39 -6.8 19.7
16:35 1022 30.18 851 25.13 5.9 42.6 39 -7 19.4
16:40 1022 30.18 851 25.13 6 42.8 37 -7.8 18
16:45 1022 30.18 851 25.13 6.3 43.3 35 -8 17.6
16:50 1022 30.18 851 25.13 6.7 44 36 -7.3 18.9
16:55 1022 30.18 851 25.13 6.6 44 37 -7.1 19.2
17:00 1022 30.18 851 25.13 6.6 44 36 -7.2 19
17:05 1022 30.18 851 25.13 6.5 43.6 38 -6.8 19.8
17:10 1022 30.18 851 25.13 6.4 43.5 37 -7.2 19
17:15 1022 30.18 851 25.13 6.3 43.3 38 -7.1 19.3
17:20 1022 30.18 851 25.13 6.3 43.4 36 -7.6 18.3
17:25 1022 30.18 851 25.13 6.4 43.6 36 -7.5 18.6
17:30 1022 30.18 851 25.13 6.7 44.1 35 -7.6 18.4
17:35 1022 30.18 851 25.13 6.4 43.6 37 -7.3 18.8
17:40 1022 30.18 851 25.13 6.5 43.6 37 -7.2 19.1
17:45 1022 30.18 851 25.13 6.4 43.6 39 -6.5 20.3
17:50 1021 30.15 851 25.13 5.6 42 41 -6.6 20.2
17:55 1021 30.15 851 25.13 5.3 41.6 42 -6.4 20.5
18:00 1021 30.15 851 25.13 4.5 40.1 45 -6.3 20.6
18:05 1021 30.15 851 25.13 4 39.2 47 -6.3 20.6
18:10 1021 30.15 851 25.13 3.8 38.9 47 -6.4 20.4
18:15 1021 30.15 851 25.13 3.6 38.5 47 -6.6 20.2
18:20 1021 30.15 851 25.13 3.3 37.9 48 -6.6 20.1
18:25 1021 30.15 851 25.13 2.9 37.2 49 -6.7 20
18:30 1021 30.15 851 25.13 2.7 36.8 51 -6.4 20.4
18:35 1021 30.15 851 25.13 2.5 36.4 52 -6.5 20.4
18:40 1021 30.15 851 25.13 2.4 36.3 52 -6.4 20.5
18:45 1021 30.15 851 25.13 2.2 36 53 -6.4 20.5
18:50 1021 30.15 851 25.13 2.2 35.9 54 -6.3 20.7
18:55 1021 30.15 851 25.13 2 35.6 54 -6.3 20.6
19:00 1021 30.15 850 25.1 2 35.7 54 -6.4 20.5
19:05 1021 30.15 850 25.1 1.9 35.5 53 -6.7 19.9
19:10 1021 30.15 850 25.1 1.9 35.5 53 -6.7 19.9
19:15 1021 30.15 850 25.1 1.8 35.2 53 -6.9 19.6
19:20 1021 30.15 850 25.1 1.5 34.7 53 -7.1 19.3
19:25 1021 30.15 850 25.1 0.8 33.5 57 -6.8 19.8
19:30 1021 30.15 850 25.1 0.3 32.6 58 -6.9 19.5
19:35 1021 30.15 850 25.1 0.4 32.8 59 -6.8 19.8
19:40 1021 30.15 850 25.1 0.5 33 58 -6.8 19.7
19:45 1021 30.15 850 25.1 0.1 32.2 59 -6.9 19.5
19:50 1021 30.15 850 25.1 0.2 32.4 57 -7.2 19
19:55 1021 30.15 850 25.1 0.2 32.4 56 -7.5 18.5
20:00 1021 30.15 850 25.1 0.2 32.3 58 -7.3 18.9
20:05 1021 30.15 850 25.1 -0.1 31.9 57 -7.5 18.5
20:10 1021 30.15 850 25.1 -0.2 31.6 56 -7.9 17.8
20:15 1021 30.15 850 25.1 -0.4 31.4 57 -7.9 17.7
20:20 1021 30.15 850 25.1 -0.4 31.2 57 -8.1 17.5
20:25 1021 30.15 850 25.1 -0.4 31.2 57 -7.9 17.8
20:30 1021 30.15 850 25.1 -0.5 31.1 56 -8.1 17.4
20:35 1021 30.15 850 25.1 -0.5 31.2 56 -8.2 17.2
20:40 1021 30.15 850 25.1 -0.4 31.4 55 -8.4 16.8
20:45 1021 30.15 850 25.1 -0.3 31.5 53 -8.6 16.5
20:50 1021 30.15 850 25.1 -0.1 31.8 53 -8.7 16.4
20:55 1021 30.15 850 25.1 0.1 32.2 51 -8.8 16.2
21:00 1021 30.15 850 25.1 -0.2 31.6 51 -9.1 15.6
21:05 1021 30.15 850 25.1 -0.4 31.3 51 -9.5 15
21:10 1021 30.15 850 25.1 -0.4 31.2 49 -9.9 14.3
21:15 1021 30.15 850 25.1 -0.3 31.5 49 -9.8 14.4
21:20 1021 30.15 850 25.1 -0.6 31 50 -9.7 14.5
21:25 1021 30.15 850 25.1 -0.6 31 53 -8.9 15.9
21:30 1020 30.12 850 25.1 -0.9 30.3 53 -9.4 15
21:35 1021 30.15 850 25.1 -1.3 29.6 54 -9.5 14.9
21:40 1021 30.15 850 25.1 -1.5 29.3 53 -9.8 14.4
21:45 1021 30.15 850 25.1 -1.7 29 56 -9.4 15.1
21:50 1020 30.12 850 25.1 -2 28.3 57 -9.5 14.8
21:55 1020 30.12 850 25.1 -2.2 28 57 -9.6 14.7
22:00 1020 30.12 849 25.07 -2.2 28.1 56 -9.8 14.4
22:05 1020 30.12 849 25.07 -1.9 28.5 54 -10 14
22:10 1020 30.12 849 25.07 -1.7 28.9 54 -9.8 14.3
22:15 1020 30.12 849 25.07 -1.5 29.3 55 -9.3 15.2
22:20 1020 30.12 849 25.07 -1.7 28.9 57 -9.2 15.4
22:25 1020 30.12 849 25.07 -1.7 28.9 55 -9.6 14.7
22:30 1020 30.12 849 25.07 -1.5 29.3 56 -9.2 15.5
22:35 1020 30.12 849 25.07 -1.9 28.6 57 -9.3 15.3
22:40 1020 30.12 849 25.07 -2.1 28.3 57 -9.4 15.1
22:45 1020 30.12 849 25.07 -1.9 28.5 56 -9.5 14.9
22:50 1020 30.12 849 25.07 -1.9 28.6 56 -9.6 14.7
22:55 1020 30.12 849 25.07 -2 28.5 55 -9.9 14.1
23:00 1020 30.12 849 25.07 -1.7 29 54 -9.8 14.3
23:05 1020 30.12 849 25.07 -1.8 28.7 55 -9.6 14.7
23:10 1020 30.12 849 25.07 -2.2 28.1 56 -9.7 14.6
23:15 1020 30.12 849 25.07 -2.2 28.1 56 -9.9 14.1
23:20 1020 30.12 849 25.07 -2.2 28.1 58 -9.4 15.1
23:25 1020 30.12 849 25.07 -2.4 27.6 59 -9.4 15.1
23:30 1020 30.12 849 25.07 -2.3 27.8 58 -9.5 14.8
23:35 1020 30.12 849 25.07 -2.2 28 57 -9.7 14.6
23:40 1019 30.09 849 25.07 -2.5 27.6 56 -10 14
23:45 1019 30.09 849 25.07 -2.1 28.2 54 -10.2 13.6
23:50 1019 30.09 848 25.04 -2 28.4 54 -10.1 13.7
23:55 1019 30.09 848 25.04 -2 28.4 54 -10.1 13.9
24:00 1019 30.09 848 25.04 -2.1 28.2 54 -10.1 13.7